sensor_id;sensor_type;location;lat;lon;timestamp;temperature;humidity
23755;DHT22;12057;52.042;6.830;2023-12-22T00:00:21;8.60;99.90
23755;DHT22;12057;52.042;6.830;2023-12-22T00:05:22;8.70;99.90
23755;DHT22;12057;52.042;6.830;2023-12-22T00:10:22;8.70;99.90
23755;DHT22;12057;52.042;6.830;2023-12-22T00:15:23;8.50;99.90
23755;DHT22;12057;52.042;6.830;2023-12-22T00:20:24;8.50;99.90
23755;DHT22;12057;52.042;6.830;2023-12-22T00:25:25;8.40;99.90
23755;DHT22;12057;52.042;6.830;2023-12-22T00:30:26;8.40;99.90
23755;DHT22;12057;52.042;6.830;2023-12-22T00:35:26;8.40;99.90
23755;DHT22;12057;52.042;6.830;2023-12-22T00:40:27;8.30;99.90
23755;DHT22;12057;52.042;6.830;2023-12-22T00:45:28;8.10;99.90
23755;DHT22;12057;52.042;6.830;2023-12-22T00:50:29;8.30;99.90
23755;DHT22;12057;52.042;6.830;2023-12-22T00:55:29;8.10;99.90
23755;DHT22;12057;52.042;6.830;2023-12-22T01:00:30;8.30;99.90
23755;DHT22;12057;52.042;6.830;2023-12-22T01:05:31;8.70;99.90
23755;DHT22;12057;52.042;6.830;2023-12-22T01:10:32;8.60;99.90
23755;DHT22;12057;52.042;6.830;2023-12-22T01:15:32;8.50;99.90
23755;DHT22;12057;52.042;6.830;2023-12-22T01:20:33;8.10;99.90
23755;DHT22;12057;52.042;6.830;2023-12-22T01:25:34;8.20;99.90
23755;DHT22;12057;52.042;6.830;2023-12-22T01:30:35;8.40;99.90
23755;DHT22;12057;52.042;6.830;2023-12-22T01:35:36;8.60;99.90
23755;DHT22;12057;52.042;6.830;2023-12-22T01:40:36;8.60;99.90
23755;DHT22;12057;52.042;6.830;2023-12-22T01:45:37;8.90;99.90
23755;DHT22;12057;52.042;6.830;2023-12-22T01:50:38;8.90;99.90
23755;DHT22;12057;52.042;6.830;2023-12-22T01:55:39;8.80;99.90
23755;DHT22;12057;52.042;6.830;2023-12-22T02:00:40;9.00;99.90
23755;DHT22;12057;52.042;6.830;2023-12-22T02:05:42;8.90;99.90
23755;DHT22;12057;52.042;6.830;2023-12-22T02:10:43;9.30;99.90
23755;DHT22;12057;52.042;6.830;2023-12-22T02:15:44;9.30;99.90
23755;DHT22;12057;52.042;6.830;2023-12-22T02:20:46;9.10;99.90
23755;DHT22;12057;52.042;6.830;2023-12-22T02:25:50;8.80;99.90
23755;DHT22;12057;52.042;6.830;2023-12-22T02:36:06;7.70;99.90
23755;DHT22;12057;52.042;6.830;2023-12-22T02:41:08;7.20;99.90
23755;DHT22;12057;52.042;6.830;2023-12-22T02:46:15;6.50;99.90
23755;DHT22;12057;52.042;6.830;2023-12-22T02:51:16;7.00;99.90
23755;DHT22;12057;52.042;6.830;2023-12-22T02:56:17;7.70;99.90
23755;DHT22;12057;52.042;6.830;2023-12-22T03:01:18;7.50;99.90
23755;DHT22;12057;52.042;6.830;2023-12-22T03:06:18;7.50;99.90
23755;DHT22;12057;52.042;6.830;2023-12-22T03:11:19;7.80;99.90
23755;DHT22;12057;52.042;6.830;2023-12-22T03:16:20;7.80;99.90
23755;DHT22;12057;52.042;6.830;2023-12-22T03:21:21;7.60;99.90
23755;DHT22;12057;52.042;6.830;2023-12-22T03:26:22;7.50;99.90
23755;DHT22;12057;52.042;6.830;2023-12-22T03:31:22;7.40;99.90
23755;DHT22;12057;52.042;6.830;2023-12-22T03:36:23;7.60;99.90
23755;DHT22;12057;52.042;6.830;2023-12-22T03:41:24;8.00;99.90
23755;DHT22;12057;52.042;6.830;2023-12-22T03:46:25;7.80;99.90
23755;DHT22;12057;52.042;6.830;2023-12-22T03:51:29;7.90;99.90
23755;DHT22;12057;52.042;6.830;2023-12-22T03:56:29;7.80;99.90
23755;DHT22;12057;52.042;6.830;2023-12-22T04:01:30;7.80;99.90
23755;DHT22;12057;52.042;6.830;2023-12-22T04:06:38;7.80;99.90
23755;DHT22;12057;52.042;6.830;2023-12-22T04:11:39;7.90;99.90
23755;DHT22;12057;52.042;6.830;2023-12-22T04:16:41;7.90;99.90
23755;DHT22;12057;52.042;6.830;2023-12-22T04:21:42;7.70;99.90
23755;DHT22;12057;52.042;6.830;2023-12-22T04:26:49;7.70;99.90
23755;DHT22;12057;52.042;6.830;2023-12-22T04:31:50;7.90;99.90
23755;DHT22;12057;52.042;6.830;2023-12-22T04:36:51;7.90;99.90
23755;DHT22;12057;52.042;6.830;2023-12-22T04:41:54;7.80;99.90
23755;DHT22;12057;52.042;6.830;2023-12-22T04:46:55;7.90;99.90
23755;DHT22;12057;52.042;6.830;2023-12-22T04:51:56;7.90;99.90
23755;DHT22;12057;52.042;6.830;2023-12-22T04:56:57;7.70;99.90
23755;DHT22;12057;52.042;6.830;2023-12-22T05:01:58;7.90;99.90
23755;DHT22;12057;52.042;6.830;2023-12-22T05:06:58;8.00;99.90
23755;DHT22;12057;52.042;6.830;2023-12-22T05:11:59;7.90;99.90
23755;DHT22;12057;52.042;6.830;2023-12-22T05:17:00;7.90;99.90
23755;DHT22;12057;52.042;6.830;2023-12-22T05:22:01;8.00;99.90
23755;DHT22;12057;52.042;6.830;2023-12-22T05:27:02;7.90;99.90
23755;DHT22;12057;52.042;6.830;2023-12-22T05:32:03;7.80;99.90
23755;DHT22;12057;52.042;6.830;2023-12-22T05:37:04;7.70;99.90
23755;DHT22;12057;52.042;6.830;2023-12-22T05:42:14;8.00;99.90
23755;DHT22;12057;52.042;6.830;2023-12-22T05:47:16;8.30;99.90
23755;DHT22;12057;52.042;6.830;2023-12-22T05:52:17;8.30;99.90
23755;DHT22;12057;52.042;6.830;2023-12-22T05:57:20;8.40;99.90
23755;DHT22;12057;52.042;6.830;2023-12-22T06:02:21;8.50;99.90
23755;DHT22;12057;52.042;6.830;2023-12-22T06:07:22;8.50;99.90
23755;DHT22;12057;52.042;6.830;2023-12-22T06:12:23;8.70;99.90
23755;DHT22;12057;52.042;6.830;2023-12-22T06:17:23;8.60;99.90
23755;DHT22;12057;52.042;6.830;2023-12-22T06:22:24;8.80;99.90
23755;DHT22;12057;52.042;6.830;2023-12-22T06:27:25;9.00;99.90
23755;DHT22;12057;52.042;6.830;2023-12-22T06:32:26;8.90;99.90
23755;DHT22;12057;52.042;6.830;2023-12-22T06:37:27;9.00;99.90
23755;DHT22;12057;52.042;6.830;2023-12-22T06:42:27;8.80;99.90
23755;DHT22;12057;52.042;6.830;2023-12-22T06:47:34;8.80;99.90
23755;DHT22;12057;52.042;6.830;2023-12-22T06:52:35;9.10;99.90
23755;DHT22;12057;52.042;6.830;2023-12-22T06:57:36;8.90;99.90
23755;DHT22;12057;52.042;6.830;2023-12-22T07:02:37;8.70;99.90
23755;DHT22;12057;52.042;6.830;2023-12-22T07:07:38;8.90;99.90
23755;DHT22;12057;52.042;6.830;2023-12-22T07:12:39;8.90;99.90
23755;DHT22;12057;52.042;6.830;2023-12-22T07:17:39;8.60;99.90
23755;DHT22;12057;52.042;6.830;2023-12-22T07:22:40;8.40;99.90
23755;DHT22;12057;52.042;6.830;2023-12-22T07:27:48;8.20;99.90
23755;DHT22;12057;52.042;6.830;2023-12-22T07:32:48;8.20;99.90
23755;DHT22;12057;52.042;6.830;2023-12-22T07:43:16;8.70;99.90
23755;DHT22;12057;52.042;6.830;2023-12-22T07:48:23;8.90;99.90
23755;DHT22;12057;52.042;6.830;2023-12-22T07:53:45;9.10;99.90
23755;DHT22;12057;52.042;6.830;2023-12-22T07:58:53;9.20;99.90
23755;DHT22;12057;52.042;6.830;2023-12-22T08:04:01;9.10;99.90
23755;DHT22;12057;52.042;6.830;2023-12-22T08:09:06;9.20;99.90
23755;DHT22;12057;52.042;6.830;2023-12-22T08:14:27;9.30;99.90
23755;DHT22;12057;52.042;6.830;2023-12-22T08:19:55;9.10;99.90
23755;DHT22;12057;52.042;6.830;2023-12-22T08:24:58;9.10;99.90
23755;DHT22;12057;52.042;6.830;2023-12-22T08:29:59;9.60;99.90
23755;DHT22;12057;52.042;6.830;2023-12-22T08:34:59;9.70;99.90
23755;DHT22;12057;52.042;6.830;2023-12-22T08:40:00;9.10;99.90
23755;DHT22;12057;52.042;6.830;2023-12-22T08:45:01;9.30;99.90
23755;DHT22;12057;52.042;6.830;2023-12-22T08:50:03;9.40;99.90
23755;DHT22;12057;52.042;6.830;2023-12-22T08:55:05;9.50;99.90
23755;DHT22;12057;52.042;6.830;2023-12-22T09:00:06;9.70;99.90
23755;DHT22;12057;52.042;6.830;2023-12-22T09:05:08;9.80;99.90
23755;DHT22;12057;52.042;6.830;2023-12-22T09:10:09;9.90;99.90
23755;DHT22;12057;52.042;6.830;2023-12-22T09:15:10;10.00;99.90
23755;DHT22;12057;52.042;6.830;2023-12-22T09:20:11;10.00;99.90
23755;DHT22;12057;52.042;6.830;2023-12-22T09:25:12;9.90;99.90
23755;DHT22;12057;52.042;6.830;2023-12-22T09:30:13;9.70;99.90
23755;DHT22;12057;52.042;6.830;2023-12-22T09:35:14;10.00;99.90
23755;DHT22;12057;52.042;6.830;2023-12-22T09:40:16;9.90;99.90
23755;DHT22;12057;52.042;6.830;2023-12-22T09:45:17;10.00;99.90
23755;DHT22;12057;52.042;6.830;2023-12-22T09:50:21;10.10;99.90
23755;DHT22;12057;52.042;6.830;2023-12-22T09:55:24;10.20;99.90
23755;DHT22;12057;52.042;6.830;2023-12-22T10:00:27;10.20;99.90
23755;DHT22;12057;52.042;6.830;2023-12-22T10:05:29;10.10;99.90
23755;DHT22;12057;52.042;6.830;2023-12-22T10:10:30;10.00;99.90
23755;DHT22;12057;52.042;6.830;2023-12-22T10:21:29;9.90;99.90
23755;DHT22;12057;52.042;6.830;2023-12-22T10:26:31;10.00;99.90
23755;DHT22;12057;52.042;6.830;2023-12-22T10:31:40;10.30;99.90
23755;DHT22;12057;52.042;6.830;2023-12-22T10:36:40;9.90;99.90
23755;DHT22;12057;52.042;6.830;2023-12-22T10:41:41;9.70;99.90
23755;DHT22;12057;52.042;6.830;2023-12-22T10:46:42;10.30;99.90
23755;DHT22;12057;52.042;6.830;2023-12-22T10:51:44;10.40;99.90
23755;DHT22;12057;52.042;6.830;2023-12-22T10:56:45;10.30;99.90
23755;DHT22;12057;52.042;6.830;2023-12-22T11:01:48;10.90;99.90
23755;DHT22;12057;52.042;6.830;2023-12-22T11:06:52;10.80;99.90
23755;DHT22;12057;52.042;6.830;2023-12-22T11:11:56;10.40;99.90
23755;DHT22;12057;52.042;6.830;2023-12-22T11:17:00;9.90;99.90
23755;DHT22;12057;52.042;6.830;2023-12-22T11:22:02;9.70;99.90
23755;DHT22;12057;52.042;6.830;2023-12-22T11:27:06;10.00;99.90
23755;DHT22;12057;52.042;6.830;2023-12-22T11:32:07;9.80;99.90
23755;DHT22;12057;52.042;6.830;2023-12-22T11:37:13;9.60;99.90
23755;DHT22;12057;52.042;6.830;2023-12-22T11:42:21;9.80;99.90
23755;DHT22;12057;52.042;6.830;2023-12-22T11:47:24;9.80;99.90
23755;DHT22;12057;52.042;6.830;2023-12-22T11:52:26;9.60;99.90
23755;DHT22;12057;52.042;6.830;2023-12-22T12:02:36;9.80;99.90
23755;DHT22;12057;52.042;6.830;2023-12-22T12:07:44;10.10;99.90
23755;DHT22;12057;52.042;6.830;2023-12-22T12:12:45;10.10;99.90
23755;DHT22;12057;52.042;6.830;2023-12-22T12:17:48;10.20;99.90
23755;DHT22;12057;52.042;6.830;2023-12-22T12:22:49;10.30;99.90
23755;DHT22;12057;52.042;6.830;2023-12-22T12:27:50;10.50;99.90
23755;DHT22;12057;52.042;6.830;2023-12-22T12:32:51;10.60;99.90
23755;DHT22;12057;52.042;6.830;2023-12-22T12:37:52;10.60;99.90
23755;DHT22;12057;52.042;6.830;2023-12-22T12:42:53;10.60;99.90
23755;DHT22;12057;52.042;6.830;2023-12-22T12:47:59;10.90;99.90
23755;DHT22;12057;52.042;6.830;2023-12-22T12:53:00;11.00;99.90
23755;DHT22;12057;52.042;6.830;2023-12-22T12:58:01;11.10;99.90
23755;DHT22;12057;52.042;6.830;2023-12-22T13:03:04;11.20;99.90
23755;DHT22;12057;52.042;6.830;2023-12-22T13:08:09;11.40;99.90
23755;DHT22;12057;52.042;6.830;2023-12-22T13:13:10;11.50;99.90
23755;DHT22;12057;52.042;6.830;2023-12-22T13:18:11;11.60;99.90
23755;DHT22;12057;52.042;6.830;2023-12-22T13:23:12;11.60;99.90
23755;DHT22;12057;52.042;6.830;2023-12-22T13:28:25;11.70;99.90
23755;DHT22;12057;52.042;6.830;2023-12-22T13:33:27;11.70;99.90
23755;DHT22;12057;52.042;6.830;2023-12-22T13:38:29;10.40;99.90
23755;DHT22;12057;52.042;6.830;2023-12-22T13:43:30;9.80;99.90
23755;DHT22;12057;52.042;6.830;2023-12-22T13:48:31;9.50;99.90
23755;DHT22;12057;52.042;6.830;2023-12-22T13:53:32;9.30;99.90
23755;DHT22;12057;52.042;6.830;2023-12-22T13:58:43;9.60;99.90
23755;DHT22;12057;52.042;6.830;2023-12-22T14:03:47;9.80;99.90
23755;DHT22;12057;52.042;6.830;2023-12-22T14:08:48;10.00;99.90
23755;DHT22;12057;52.042;6.830;2023-12-22T14:13:49;10.00;99.90
23755;DHT22;12057;52.042;6.830;2023-12-22T14:18:49;10.20;99.90
23755;DHT22;12057;52.042;6.830;2023-12-22T14:23:50;10.40;99.90
23755;DHT22;12057;52.042;6.830;2023-12-22T14:28:51;10.50;99.90
23755;DHT22;12057;52.042;6.830;2023-12-22T14:33:52;10.50;99.90
23755;DHT22;12057;52.042;6.830;2023-12-22T14:38:53;10.20;99.90
23755;DHT22;12057;52.042;6.830;2023-12-22T14:43:54;10.40;99.90
23755;DHT22;12057;52.042;6.830;2023-12-22T14:48:55;10.20;99.90
23755;DHT22;12057;52.042;6.830;2023-12-22T14:53:55;10.30;99.90
23755;DHT22;12057;52.042;6.830;2023-12-22T14:58:56;10.30;99.90
23755;DHT22;12057;52.042;6.830;2023-12-22T15:03:57;10.40;99.90
23755;DHT22;12057;52.042;6.830;2023-12-22T15:08:58;10.40;99.90
23755;DHT22;12057;52.042;6.830;2023-12-22T15:14:02;10.70;99.90
23755;DHT22;12057;52.042;6.830;2023-12-22T15:19:02;10.60;99.90
23755;DHT22;12057;52.042;6.830;2023-12-22T15:24:04;10.50;99.90
23755;DHT22;12057;52.042;6.830;2023-12-22T15:29:05;10.80;99.90
23755;DHT22;12057;52.042;6.830;2023-12-22T15:34:06;10.80;99.90
23755;DHT22;12057;52.042;6.830;2023-12-22T15:39:07;10.80;99.90
23755;DHT22;12057;52.042;6.830;2023-12-22T15:44:08;10.70;99.90
23755;DHT22;12057;52.042;6.830;2023-12-22T15:49:09;10.70;99.90
23755;DHT22;12057;52.042;6.830;2023-12-22T15:54:10;10.70;99.90
23755;DHT22;12057;52.042;6.830;2023-12-22T15:59:11;10.30;99.90
23755;DHT22;12057;52.042;6.830;2023-12-22T16:04:12;10.00;99.90
23755;DHT22;12057;52.042;6.830;2023-12-22T16:09:13;9.90;99.90
23755;DHT22;12057;52.042;6.830;2023-12-22T16:14:14;9.70;99.90
23755;DHT22;12057;52.042;6.830;2023-12-22T16:19:14;9.80;99.90
23755;DHT22;12057;52.042;6.830;2023-12-22T16:24:15;9.60;99.90
23755;DHT22;12057;52.042;6.830;2023-12-22T16:29:16;9.90;99.90
23755;DHT22;12057;52.042;6.830;2023-12-22T16:34:17;9.80;99.90
23755;DHT22;12057;52.042;6.830;2023-12-22T16:39:18;10.20;99.90
23755;DHT22;12057;52.042;6.830;2023-12-22T16:44:18;10.20;99.90
23755;DHT22;12057;52.042;6.830;2023-12-22T16:49:22;9.90;99.90
23755;DHT22;12057;52.042;6.830;2023-12-22T16:54:23;9.80;99.90
23755;DHT22;12057;52.042;6.830;2023-12-22T16:59:24;10.10;99.90
23755;DHT22;12057;52.042;6.830;2023-12-22T17:04:26;10.00;99.90
23755;DHT22;12057;52.042;6.830;2023-12-22T17:09:27;9.90;99.90
23755;DHT22;12057;52.042;6.830;2023-12-22T17:14:27;10.20;99.90
23755;DHT22;12057;52.042;6.830;2023-12-22T17:19:28;10.10;99.90
23755;DHT22;12057;52.042;6.830;2023-12-22T17:24:29;10.10;99.90
23755;DHT22;12057;52.042;6.830;2023-12-22T17:29:30;9.90;99.90
23755;DHT22;12057;52.042;6.830;2023-12-22T17:34:31;10.00;99.90
23755;DHT22;12057;52.042;6.830;2023-12-22T17:39:32;9.90;99.90
23755;DHT22;12057;52.042;6.830;2023-12-22T17:44:34;9.90;99.90
23755;DHT22;12057;52.042;6.830;2023-12-22T17:49:35;10.10;99.90
23755;DHT22;12057;52.042;6.830;2023-12-22T17:54:36;10.00;99.90
23755;DHT22;12057;52.042;6.830;2023-12-22T17:59:37;9.60;99.90
23755;DHT22;12057;52.042;6.830;2023-12-22T18:04:40;9.80;99.90
23755;DHT22;12057;52.042;6.830;2023-12-22T18:09:41;9.90;99.90
23755;DHT22;12057;52.042;6.830;2023-12-22T18:14:42;9.70;99.90
23755;DHT22;12057;52.042;6.830;2023-12-22T18:19:42;9.90;99.90
23755;DHT22;12057;52.042;6.830;2023-12-22T18:24:44;9.80;99.90
23755;DHT22;12057;52.042;6.830;2023-12-22T18:29:44;9.80;99.90
23755;DHT22;12057;52.042;6.830;2023-12-22T18:34:45;10.00;99.90
23755;DHT22;12057;52.042;6.830;2023-12-22T18:39:46;9.80;99.90
23755;DHT22;12057;52.042;6.830;2023-12-22T18:44:47;10.00;99.90
23755;DHT22;12057;52.042;6.830;2023-12-22T18:49:48;9.70;99.90
23755;DHT22;12057;52.042;6.830;2023-12-22T18:54:49;9.80;99.90
23755;DHT22;12057;52.042;6.830;2023-12-22T18:59:49;9.60;99.90
23755;DHT22;12057;52.042;6.830;2023-12-22T19:04:55;9.70;99.90
23755;DHT22;12057;52.042;6.830;2023-12-22T19:09:57;10.00;99.90
23755;DHT22;12057;52.042;6.830;2023-12-22T19:14:57;10.00;99.90
23755;DHT22;12057;52.042;6.830;2023-12-22T19:19:58;10.10;99.90
23755;DHT22;12057;52.042;6.830;2023-12-22T19:24:59;10.00;99.90
23755;DHT22;12057;52.042;6.830;2023-12-22T19:30:00;9.80;99.90
23755;DHT22;12057;52.042;6.830;2023-12-22T19:35:01;9.80;99.90
23755;DHT22;12057;52.042;6.830;2023-12-22T19:40:03;9.50;99.90
23755;DHT22;12057;52.042;6.830;2023-12-22T19:45:06;9.40;99.90
23755;DHT22;12057;52.042;6.830;2023-12-22T19:50:11;9.40;99.90
23755;DHT22;12057;52.042;6.830;2023-12-22T19:55:11;9.10;99.90
23755;DHT22;12057;52.042;6.830;2023-12-22T20:00:12;9.20;99.90
23755;DHT22;12057;52.042;6.830;2023-12-22T20:05:14;9.40;99.90
23755;DHT22;12057;52.042;6.830;2023-12-22T20:10:15;9.60;99.90
23755;DHT22;12057;52.042;6.830;2023-12-22T20:15:15;9.50;99.90
23755;DHT22;12057;52.042;6.830;2023-12-22T20:20:16;9.50;99.90
23755;DHT22;12057;52.042;6.830;2023-12-22T20:25:17;9.50;99.90
23755;DHT22;12057;52.042;6.830;2023-12-22T20:30:18;9.10;99.90
23755;DHT22;12057;52.042;6.830;2023-12-22T20:35:19;9.10;99.90
23755;DHT22;12057;52.042;6.830;2023-12-22T20:40:20;9.50;99.90
23755;DHT22;12057;52.042;6.830;2023-12-22T20:45:21;9.60;99.90
23755;DHT22;12057;52.042;6.830;2023-12-22T20:50:22;9.70;99.90
23755;DHT22;12057;52.042;6.830;2023-12-22T20:55:23;9.40;99.90
23755;DHT22;12057;52.042;6.830;2023-12-22T21:00:24;9.40;99.90
23755;DHT22;12057;52.042;6.830;2023-12-22T21:05:25;9.50;99.90
23755;DHT22;12057;52.042;6.830;2023-12-22T21:10:26;9.40;99.90
23755;DHT22;12057;52.042;6.830;2023-12-22T21:15:27;9.10;99.90
23755;DHT22;12057;52.042;6.830;2023-12-22T21:20:28;9.10;99.90
23755;DHT22;12057;52.042;6.830;2023-12-22T21:25:29;9.50;99.90
23755;DHT22;12057;52.042;6.830;2023-12-22T21:30:30;9.30;99.90
23755;DHT22;12057;52.042;6.830;2023-12-22T21:35:31;9.20;99.90
23755;DHT22;12057;52.042;6.830;2023-12-22T21:40:32;9.30;99.90
23755;DHT22;12057;52.042;6.830;2023-12-22T21:45:33;9.40;99.90
23755;DHT22;12057;52.042;6.830;2023-12-22T21:50:34;9.40;99.90
23755;DHT22;12057;52.042;6.830;2023-12-22T21:55:35;9.30;99.90
23755;DHT22;12057;52.042;6.830;2023-12-22T22:00:36;9.30;99.90
23755;DHT22;12057;52.042;6.830;2023-12-22T22:05:44;9.10;99.90
23755;DHT22;12057;52.042;6.830;2023-12-22T22:10:49;9.50;99.90
23755;DHT22;12057;52.042;6.830;2023-12-22T22:15:50;9.30;99.90
23755;DHT22;12057;52.042;6.830;2023-12-22T22:20:51;9.40;99.90
23755;DHT22;12057;52.042;6.830;2023-12-22T22:25:52;9.30;99.90
23755;DHT22;12057;52.042;6.830;2023-12-22T22:30:52;9.40;99.90
23755;DHT22;12057;52.042;6.830;2023-12-22T22:35:53;9.50;99.90
23755;DHT22;12057;52.042;6.830;2023-12-22T22:40:54;9.60;99.90
23755;DHT22;12057;52.042;6.830;2023-12-22T22:45:55;9.80;99.90
23755;DHT22;12057;52.042;6.830;2023-12-22T22:50:56;9.90;99.90
23755;DHT22;12057;52.042;6.830;2023-12-22T22:55:56;9.70;99.90
23755;DHT22;12057;52.042;6.830;2023-12-22T23:00:57;9.80;99.90
23755;DHT22;12057;52.042;6.830;2023-12-22T23:05:58;9.60;99.90
23755;DHT22;12057;52.042;6.830;2023-12-22T23:10:59;9.70;99.90
23755;DHT22;12057;52.042;6.830;2023-12-22T23:16:00;9.60;99.90
23755;DHT22;12057;52.042;6.830;2023-12-22T23:21:01;9.60;99.90
23755;DHT22;12057;52.042;6.830;2023-12-22T23:26:02;9.50;99.90
23755;DHT22;12057;52.042;6.830;2023-12-22T23:31:03;9.40;99.90
23755;DHT22;12057;52.042;6.830;2023-12-22T23:36:04;9.60;99.90
23755;DHT22;12057;52.042;6.830;2023-12-22T23:41:05;9.50;99.90
23755;DHT22;12057;52.042;6.830;2023-12-22T23:46:06;9.70;99.90
23755;DHT22;12057;52.042;6.830;2023-12-22T23:51:07;9.60;99.90
23755;DHT22;12057;52.042;6.830;2023-12-22T23:56:08;9.40;99.90
